sensor_id;sensor_type;location;lat;lon;timestamp;P1;durP1;ratioP1;P2;durP2;ratioP2
77984;SDS011;67177;47.240;-1.546;2023-06-22T00:02:13;5.55;;;2.25;;
77984;SDS011;67177;47.240;-1.546;2023-06-22T00:04:39;6.40;;;2.60;;
77984;SDS011;67177;47.240;-1.546;2023-06-22T00:07:04;5.18;;;2.35;;
77984;SDS011;67177;47.240;-1.546;2023-06-22T00:09:30;5.60;;;2.38;;
77984;SDS011;67177;47.240;-1.546;2023-06-22T00:11:57;5.67;;;2.40;;
77984;SDS011;67177;47.240;-1.546;2023-06-22T00:14:22;5.40;;;2.20;;
77984;SDS011;67177;47.240;-1.546;2023-06-22T00:16:48;6.10;;;2.40;;
77984;SDS011;67177;47.240;-1.546;2023-06-22T00:19:14;4.85;;;2.13;;
77984;SDS011;67177;47.240;-1.546;2023-06-22T00:21:40;6.00;;;2.23;;
77984;SDS011;67177;47.240;-1.546;2023-06-22T00:24:08;4.45;;;1.77;;
77984;SDS011;67177;47.240;-1.546;2023-06-22T00:26:33;5.18;;;2.10;;
77984;SDS011;67177;47.240;-1.546;2023-06-22T00:28:59;5.13;;;1.80;;
77984;SDS011;67177;47.240;-1.546;2023-06-22T00:31:25;5.18;;;2.20;;
77984;SDS011;67177;47.240;-1.546;2023-06-22T00:33:50;5.30;;;2.20;;
77984;SDS011;67177;47.240;-1.546;2023-06-22T00:36:16;5.23;;;2.17;;
77984;SDS011;67177;47.240;-1.546;2023-06-22T00:38:42;5.50;;;2.30;;
77984;SDS011;67177;47.240;-1.546;2023-06-22T00:41:08;5.85;;;2.17;;
77984;SDS011;67177;47.240;-1.546;2023-06-22T00:43:34;4.70;;;2.20;;
77984;SDS011;67177;47.240;-1.546;2023-06-22T00:46:00;5.35;;;2.38;;
77984;SDS011;67177;47.240;-1.546;2023-06-22T00:48:25;4.90;;;1.95;;
77984;SDS011;67177;47.240;-1.546;2023-06-22T00:50:51;4.68;;;1.90;;
77984;SDS011;67177;47.240;-1.546;2023-06-22T00:53:18;4.70;;;2.10;;
77984;SDS011;67177;47.240;-1.546;2023-06-22T00:55:44;5.73;;;2.20;;
77984;SDS011;67177;47.240;-1.546;2023-06-22T00:58:12;4.82;;;1.90;;
77984;SDS011;67177;47.240;-1.546;2023-06-22T01:00:38;4.35;;;1.80;;
77984;SDS011;67177;47.240;-1.546;2023-06-22T01:03:06;4.32;;;1.83;;
77984;SDS011;67177;47.240;-1.546;2023-06-22T01:05:35;4.75;;;1.90;;
77984;SDS011;67177;47.240;-1.546;2023-06-22T01:11:10;4.53;;;1.60;;
77984;SDS011;67177;47.240;-1.546;2023-06-22T01:13:45;3.95;;;1.48;;
77984;SDS011;67177;47.240;-1.546;2023-06-22T01:16:24;4.25;;;1.60;;
77984;SDS011;67177;47.240;-1.546;2023-06-22T01:19:06;4.43;;;1.80;;
77984;SDS011;67177;47.240;-1.546;2023-06-22T01:21:45;5.00;;;2.10;;
77984;SDS011;67177;47.240;-1.546;2023-06-22T01:29:40;4.68;;;2.00;;
77984;SDS011;67177;47.240;-1.546;2023-06-22T01:32:07;4.30;;;1.52;;
77984;SDS011;67177;47.240;-1.546;2023-06-22T01:34:36;4.20;;;1.70;;
77984;SDS011;67177;47.240;-1.546;2023-06-22T01:37:05;4.00;;;1.40;;
77984;SDS011;67177;47.240;-1.546;2023-06-22T01:39:32;3.97;;;1.52;;
77984;SDS011;67177;47.240;-1.546;2023-06-22T01:41:58;3.67;;;1.40;;
77984;SDS011;67177;47.240;-1.546;2023-06-22T01:44:25;4.95;;;1.70;;
77984;SDS011;67177;47.240;-1.546;2023-06-22T01:46:51;4.27;;;1.70;;
77984;SDS011;67177;47.240;-1.546;2023-06-22T01:49:17;4.40;;;1.80;;
77984;SDS011;67177;47.240;-1.546;2023-06-22T01:51:43;4.60;;;2.17;;
77984;SDS011;67177;47.240;-1.546;2023-06-22T01:54:09;5.68;;;1.88;;
77984;SDS011;67177;47.240;-1.546;2023-06-22T01:56:35;5.55;;;2.17;;
77984;SDS011;67177;47.240;-1.546;2023-06-22T01:59:06;5.32;;;2.15;;
77984;SDS011;67177;47.240;-1.546;2023-06-22T02:01:36;4.93;;;2.15;;
77984;SDS011;67177;47.240;-1.546;2023-06-22T02:04:36;6.00;;;2.13;;
77984;SDS011;67177;47.240;-1.546;2023-06-22T02:07:09;5.32;;;1.90;;
77984;SDS011;67177;47.240;-1.546;2023-06-22T02:09:45;5.25;;;2.15;;
77984;SDS011;67177;47.240;-1.546;2023-06-22T02:12:16;5.70;;;2.17;;
77984;SDS011;67177;47.240;-1.546;2023-06-22T02:14:44;5.85;;;2.40;;
77984;SDS011;67177;47.240;-1.546;2023-06-22T02:17:11;5.80;;;2.40;;
77984;SDS011;67177;47.240;-1.546;2023-06-22T02:19:37;4.90;;;2.30;;
77984;SDS011;67177;47.240;-1.546;2023-06-22T02:22:04;5.20;;;2.17;;
77984;SDS011;67177;47.240;-1.546;2023-06-22T02:24:30;5.75;;;2.40;;
77984;SDS011;67177;47.240;-1.546;2023-06-22T02:27:00;6.43;;;2.25;;
77984;SDS011;67177;47.240;-1.546;2023-06-22T02:29:26;4.60;;;2.13;;
77984;SDS011;67177;47.240;-1.546;2023-06-22T02:31:53;5.72;;;2.22;;
77984;SDS011;67177;47.240;-1.546;2023-06-22T02:34:19;5.22;;;2.20;;
77984;SDS011;67177;47.240;-1.546;2023-06-22T02:36:45;4.90;;;2.10;;
77984;SDS011;67177;47.240;-1.546;2023-06-22T02:39:24;5.13;;;2.00;;
77984;SDS011;67177;47.240;-1.546;2023-06-22T02:41:50;5.32;;;2.10;;
77984;SDS011;67177;47.240;-1.546;2023-06-22T02:44:17;5.45;;;2.30;;
77984;SDS011;67177;47.240;-1.546;2023-06-22T02:46:43;5.43;;;2.10;;
77984;SDS011;67177;47.240;-1.546;2023-06-22T02:49:10;5.40;;;1.97;;
77984;SDS011;67177;47.240;-1.546;2023-06-22T02:51:37;5.05;;;1.98;;
77984;SDS011;67177;47.240;-1.546;2023-06-22T02:54:04;5.53;;;2.17;;
77984;SDS011;67177;47.240;-1.546;2023-06-22T02:56:30;5.90;;;1.98;;
77984;SDS011;67177;47.240;-1.546;2023-06-22T02:58:56;4.77;;;2.00;;
77984;SDS011;67177;47.240;-1.546;2023-06-22T03:01:28;5.55;;;1.95;;
77984;SDS011;67177;47.240;-1.546;2023-06-22T03:03:55;5.63;;;2.20;;
77984;SDS011;67177;47.240;-1.546;2023-06-22T03:06:21;5.25;;;2.20;;
77984;SDS011;67177;47.240;-1.546;2023-06-22T03:08:48;5.57;;;2.20;;
77984;SDS011;67177;47.240;-1.546;2023-06-22T03:11:17;5.00;;;2.17;;
77984;SDS011;67177;47.240;-1.546;2023-06-22T03:13:43;5.30;;;2.00;;
77984;SDS011;67177;47.240;-1.546;2023-06-22T03:16:08;4.60;;;1.83;;
77984;SDS011;67177;47.240;-1.546;2023-06-22T03:18:34;5.17;;;2.03;;
77984;SDS011;67177;47.240;-1.546;2023-06-22T03:21:00;5.88;;;2.63;;
77984;SDS011;67177;47.240;-1.546;2023-06-22T03:23:27;4.93;;;1.98;;
77984;SDS011;67177;47.240;-1.546;2023-06-22T03:25:53;5.00;;;2.27;;
77984;SDS011;67177;47.240;-1.546;2023-06-22T03:28:20;5.10;;;2.35;;
77984;SDS011;67177;47.240;-1.546;2023-06-22T03:30:46;5.22;;;2.30;;
77984;SDS011;67177;47.240;-1.546;2023-06-22T03:33:12;6.90;;;2.40;;
77984;SDS011;67177;47.240;-1.546;2023-06-22T03:35:38;5.40;;;2.40;;
77984;SDS011;67177;47.240;-1.546;2023-06-22T03:38:03;6.10;;;2.53;;
77984;SDS011;67177;47.240;-1.546;2023-06-22T03:40:29;6.00;;;2.58;;
77984;SDS011;67177;47.240;-1.546;2023-06-22T03:42:55;5.63;;;2.40;;
77984;SDS011;67177;47.240;-1.546;2023-06-22T03:45:21;5.40;;;2.40;;
77984;SDS011;67177;47.240;-1.546;2023-06-22T03:47:46;5.27;;;2.40;;
77984;SDS011;67177;47.240;-1.546;2023-06-22T03:50:12;5.82;;;2.58;;
77984;SDS011;67177;47.240;-1.546;2023-06-22T03:52:38;5.03;;;2.40;;
77984;SDS011;67177;47.240;-1.546;2023-06-22T03:55:05;6.60;;;2.42;;
77984;SDS011;67177;47.240;-1.546;2023-06-22T03:57:32;5.80;;;2.67;;
77984;SDS011;67177;47.240;-1.546;2023-06-22T03:59:58;5.45;;;2.65;;
77984;SDS011;67177;47.240;-1.546;2023-06-22T04:02:24;7.20;;;3.17;;
77984;SDS011;67177;47.240;-1.546;2023-06-22T04:04:50;6.10;;;2.80;;
77984;SDS011;67177;47.240;-1.546;2023-06-22T04:07:16;6.47;;;2.92;;
77984;SDS011;67177;47.240;-1.546;2023-06-22T04:09:43;6.37;;;2.80;;
77984;SDS011;67177;47.240;-1.546;2023-06-22T04:12:08;5.60;;;2.60;;
77984;SDS011;67177;47.240;-1.546;2023-06-22T04:14:34;6.25;;;2.55;;
77984;SDS011;67177;47.240;-1.546;2023-06-22T04:17:01;5.17;;;2.50;;
77984;SDS011;67177;47.240;-1.546;2023-06-22T04:19:26;5.78;;;2.80;;
77984;SDS011;67177;47.240;-1.546;2023-06-22T04:21:52;6.27;;;2.93;;
77984;SDS011;67177;47.240;-1.546;2023-06-22T04:24:18;5.30;;;2.70;;
77984;SDS011;67177;47.240;-1.546;2023-06-22T04:26:43;6.03;;;2.90;;
77984;SDS011;67177;47.240;-1.546;2023-06-22T04:29:11;6.05;;;2.55;;
77984;SDS011;67177;47.240;-1.546;2023-06-22T04:31:37;6.88;;;2.50;;
77984;SDS011;67177;47.240;-1.546;2023-06-22T04:34:03;5.83;;;2.60;;
77984;SDS011;67177;47.240;-1.546;2023-06-22T04:36:35;5.78;;;2.70;;
77984;SDS011;67177;47.240;-1.546;2023-06-22T04:39:06;5.30;;;2.38;;
77984;SDS011;67177;47.240;-1.546;2023-06-22T04:41:34;5.78;;;2.30;;
77984;SDS011;67177;47.240;-1.546;2023-06-22T04:44:11;5.27;;;2.20;;
77984;SDS011;67177;47.240;-1.546;2023-06-22T04:46:38;5.60;;;2.60;;
77984;SDS011;67177;47.240;-1.546;2023-06-22T04:49:05;5.68;;;2.58;;
77984;SDS011;67177;47.240;-1.546;2023-06-22T04:51:43;6.38;;;2.35;;
77984;SDS011;67177;47.240;-1.546;2023-06-22T04:54:09;5.25;;;2.38;;
77984;SDS011;67177;47.240;-1.546;2023-06-22T04:56:35;6.00;;;2.83;;
77984;SDS011;67177;47.240;-1.546;2023-06-22T04:59:01;6.47;;;2.90;;
77984;SDS011;67177;47.240;-1.546;2023-06-22T05:01:28;5.82;;;2.70;;
77984;SDS011;67177;47.240;-1.546;2023-06-22T05:03:56;6.20;;;2.70;;
77984;SDS011;67177;47.240;-1.546;2023-06-22T05:06:23;7.10;;;2.78;;
77984;SDS011;67177;47.240;-1.546;2023-06-22T05:08:53;6.60;;;2.97;;
77984;SDS011;67177;47.240;-1.546;2023-06-22T05:11:22;6.72;;;2.63;;
77984;SDS011;67177;47.240;-1.546;2023-06-22T05:13:54;5.32;;;2.50;;
77984;SDS011;67177;47.240;-1.546;2023-06-22T05:16:20;5.13;;;2.33;;
77984;SDS011;67177;47.240;-1.546;2023-06-22T05:18:50;5.07;;;2.20;;
77984;SDS011;67177;47.240;-1.546;2023-06-22T05:21:17;5.35;;;2.63;;
77984;SDS011;67177;47.240;-1.546;2023-06-22T05:23:44;5.38;;;2.60;;
77984;SDS011;67177;47.240;-1.546;2023-06-22T05:26:09;6.03;;;2.80;;
77984;SDS011;67177;47.240;-1.546;2023-06-22T05:28:35;5.90;;;2.60;;
77984;SDS011;67177;47.240;-1.546;2023-06-22T05:31:01;5.10;;;2.37;;
77984;SDS011;67177;47.240;-1.546;2023-06-22T05:33:26;6.35;;;2.50;;
77984;SDS011;67177;47.240;-1.546;2023-06-22T05:35:52;5.03;;;2.20;;
77984;SDS011;67177;47.240;-1.546;2023-06-22T05:38:17;5.17;;;2.37;;
77984;SDS011;67177;47.240;-1.546;2023-06-22T05:40:43;4.80;;;2.10;;
77984;SDS011;67177;47.240;-1.546;2023-06-22T05:43:09;4.93;;;2.17;;
77984;SDS011;67177;47.240;-1.546;2023-06-22T05:45:34;5.10;;;2.22;;
77984;SDS011;67177;47.240;-1.546;2023-06-22T05:48:00;4.73;;;2.10;;
77984;SDS011;67177;47.240;-1.546;2023-06-22T05:50:26;5.65;;;2.50;;
77984;SDS011;67177;47.240;-1.546;2023-06-22T05:52:52;5.03;;;2.20;;
77984;SDS011;67177;47.240;-1.546;2023-06-22T05:55:17;5.15;;;2.33;;
77984;SDS011;67177;47.240;-1.546;2023-06-22T05:57:44;4.63;;;2.17;;
77984;SDS011;67177;47.240;-1.546;2023-06-22T06:00:10;4.67;;;2.00;;
77984;SDS011;67177;47.240;-1.546;2023-06-22T06:02:37;5.10;;;2.10;;
77984;SDS011;67177;47.240;-1.546;2023-06-22T06:05:08;5.95;;;2.50;;
77984;SDS011;67177;47.240;-1.546;2023-06-22T06:07:39;5.57;;;2.10;;
77984;SDS011;67177;47.240;-1.546;2023-06-22T06:10:05;5.63;;;2.38;;
77984;SDS011;67177;47.240;-1.546;2023-06-22T06:12:32;5.27;;;2.47;;
77984;SDS011;67177;47.240;-1.546;2023-06-22T06:14:57;5.22;;;2.10;;
77984;SDS011;67177;47.240;-1.546;2023-06-22T06:17:23;4.97;;;2.10;;
77984;SDS011;67177;47.240;-1.546;2023-06-22T06:19:49;4.95;;;1.95;;
77984;SDS011;67177;47.240;-1.546;2023-06-22T06:22:14;4.80;;;1.90;;
77984;SDS011;67177;47.240;-1.546;2023-06-22T06:24:40;4.80;;;2.00;;
77984;SDS011;67177;47.240;-1.546;2023-06-22T06:27:06;4.40;;;1.93;;
77984;SDS011;67177;47.240;-1.546;2023-06-22T06:29:32;5.03;;;2.00;;
77984;SDS011;67177;47.240;-1.546;2023-06-22T06:31:57;4.73;;;2.00;;
77984;SDS011;67177;47.240;-1.546;2023-06-22T06:34:23;4.93;;;2.08;;
77984;SDS011;67177;47.240;-1.546;2023-06-22T06:36:49;5.07;;;2.17;;
77984;SDS011;67177;47.240;-1.546;2023-06-22T06:39:14;4.70;;;1.83;;
77984;SDS011;67177;47.240;-1.546;2023-06-22T06:41:41;4.65;;;1.85;;
77984;SDS011;67177;47.240;-1.546;2023-06-22T06:44:06;5.18;;;2.17;;
77984;SDS011;67177;47.240;-1.546;2023-06-22T06:46:32;4.70;;;1.90;;
77984;SDS011;67177;47.240;-1.546;2023-06-22T06:48:59;5.13;;;2.10;;
77984;SDS011;67177;47.240;-1.546;2023-06-22T06:51:25;4.82;;;1.90;;
77984;SDS011;67177;47.240;-1.546;2023-06-22T06:53:50;4.97;;;1.80;;
77984;SDS011;67177;47.240;-1.546;2023-06-22T06:56:16;5.23;;;2.07;;
77984;SDS011;67177;47.240;-1.546;2023-06-22T06:58:42;5.22;;;2.08;;
77984;SDS011;67177;47.240;-1.546;2023-06-22T07:01:08;4.40;;;1.93;;
77984;SDS011;67177;47.240;-1.546;2023-06-22T07:03:34;4.78;;;1.80;;
77984;SDS011;67177;47.240;-1.546;2023-06-22T07:05:59;4.75;;;2.10;;
77984;SDS011;67177;47.240;-1.546;2023-06-22T07:08:25;5.20;;;1.93;;
77984;SDS011;67177;47.240;-1.546;2023-06-22T07:10:51;5.05;;;2.10;;
77984;SDS011;67177;47.240;-1.546;2023-06-22T07:13:17;4.90;;;2.10;;
77984;SDS011;67177;47.240;-1.546;2023-06-22T07:15:43;5.03;;;1.90;;
77984;SDS011;67177;47.240;-1.546;2023-06-22T07:18:09;4.43;;;1.90;;
77984;SDS011;67177;47.240;-1.546;2023-06-22T07:20:34;4.57;;;1.90;;
77984;SDS011;67177;47.240;-1.546;2023-06-22T07:23:00;4.88;;;2.10;;
77984;SDS011;67177;47.240;-1.546;2023-06-22T07:25:26;4.80;;;2.03;;
77984;SDS011;67177;47.240;-1.546;2023-06-22T07:30:26;4.83;;;2.13;;
77984;SDS011;67177;47.240;-1.546;2023-06-22T07:32:52;4.75;;;2.33;;
77984;SDS011;67177;47.240;-1.546;2023-06-22T07:35:17;4.87;;;2.00;;
77984;SDS011;67177;47.240;-1.546;2023-06-22T07:37:43;4.78;;;2.17;;
77984;SDS011;67177;47.240;-1.546;2023-06-22T07:40:09;4.83;;;1.90;;
77984;SDS011;67177;47.240;-1.546;2023-06-22T07:42:35;5.20;;;2.40;;
77984;SDS011;67177;47.240;-1.546;2023-06-22T07:45:02;4.55;;;2.05;;
77984;SDS011;67177;47.240;-1.546;2023-06-22T07:47:28;4.90;;;1.98;;
77984;SDS011;67177;47.240;-1.546;2023-06-22T07:49:55;5.72;;;2.30;;
77984;SDS011;67177;47.240;-1.546;2023-06-22T07:52:26;4.63;;;2.10;;
77984;SDS011;67177;47.240;-1.546;2023-06-22T07:54:52;5.40;;;2.33;;
77984;SDS011;67177;47.240;-1.546;2023-06-22T07:57:18;5.50;;;2.33;;
77984;SDS011;67177;47.240;-1.546;2023-06-22T07:59:44;4.63;;;1.83;;
77984;SDS011;67177;47.240;-1.546;2023-06-22T08:02:10;4.25;;;1.70;;
77984;SDS011;67177;47.240;-1.546;2023-06-22T08:04:35;5.10;;;2.10;;
77984;SDS011;67177;47.240;-1.546;2023-06-22T08:07:01;5.07;;;2.33;;
77984;SDS011;67177;47.240;-1.546;2023-06-22T08:09:30;4.80;;;2.20;;
77984;SDS011;67177;47.240;-1.546;2023-06-22T08:11:58;4.72;;;1.98;;
77984;SDS011;67177;47.240;-1.546;2023-06-22T08:14:27;4.53;;;1.90;;
77984;SDS011;67177;47.240;-1.546;2023-06-22T08:16:54;4.75;;;2.03;;
77984;SDS011;67177;47.240;-1.546;2023-06-22T08:19:20;4.77;;;2.17;;
77984;SDS011;67177;47.240;-1.546;2023-06-22T08:21:46;4.70;;;1.83;;
77984;SDS011;67177;47.240;-1.546;2023-06-22T08:24:11;4.95;;;2.20;;
77984;SDS011;67177;47.240;-1.546;2023-06-22T08:26:37;5.07;;;2.10;;
77984;SDS011;67177;47.240;-1.546;2023-06-22T08:29:03;4.88;;;2.20;;
77984;SDS011;67177;47.240;-1.546;2023-06-22T08:31:29;5.07;;;2.20;;
77984;SDS011;67177;47.240;-1.546;2023-06-22T08:33:56;5.00;;;2.20;;
77984;SDS011;67177;47.240;-1.546;2023-06-22T08:36:21;4.65;;;2.08;;
77984;SDS011;67177;47.240;-1.546;2023-06-22T08:38:47;4.82;;;2.03;;
77984;SDS011;67177;47.240;-1.546;2023-06-22T08:41:16;4.85;;;2.13;;
77984;SDS011;67177;47.240;-1.546;2023-06-22T08:43:42;4.78;;;2.20;;
77984;SDS011;67177;47.240;-1.546;2023-06-22T08:46:12;4.70;;;2.10;;
77984;SDS011;67177;47.240;-1.546;2023-06-22T08:48:37;4.73;;;2.03;;
77984;SDS011;67177;47.240;-1.546;2023-06-22T08:51:04;5.10;;;2.05;;
77984;SDS011;67177;47.240;-1.546;2023-06-22T08:53:30;4.97;;;2.10;;
77984;SDS011;67177;47.240;-1.546;2023-06-22T08:55:55;5.07;;;1.95;;
77984;SDS011;67177;47.240;-1.546;2023-06-22T08:58:21;5.13;;;1.90;;
77984;SDS011;67177;47.240;-1.546;2023-06-22T09:00:49;4.40;;;1.90;;
77984;SDS011;67177;47.240;-1.546;2023-06-22T09:03:16;4.40;;;1.90;;
77984;SDS011;67177;47.240;-1.546;2023-06-22T09:05:42;4.40;;;1.80;;
77984;SDS011;67177;47.240;-1.546;2023-06-22T09:08:07;5.60;;;2.20;;
77984;SDS011;67177;47.240;-1.546;2023-06-22T09:10:33;5.03;;;2.30;;
77984;SDS011;67177;47.240;-1.546;2023-06-22T09:12:59;5.40;;;2.30;;
77984;SDS011;67177;47.240;-1.546;2023-06-22T09:15:24;4.80;;;2.10;;
77984;SDS011;67177;47.240;-1.546;2023-06-22T09:17:50;4.50;;;1.95;;
77984;SDS011;67177;47.240;-1.546;2023-06-22T09:20:19;5.38;;;2.22;;
77984;SDS011;67177;47.240;-1.546;2023-06-22T09:22:44;5.03;;;2.25;;
77984;SDS011;67177;47.240;-1.546;2023-06-22T09:25:10;4.70;;;1.88;;
77984;SDS011;67177;47.240;-1.546;2023-06-22T09:27:36;5.80;;;2.70;;
77984;SDS011;67177;47.240;-1.546;2023-06-22T09:30:02;4.93;;;2.40;;
77984;SDS011;67177;47.240;-1.546;2023-06-22T09:32:28;5.83;;;2.47;;
77984;SDS011;67177;47.240;-1.546;2023-06-22T09:34:54;5.57;;;2.80;;
77984;SDS011;67177;47.240;-1.546;2023-06-22T09:37:20;6.27;;;2.40;;
77984;SDS011;67177;47.240;-1.546;2023-06-22T09:39:45;5.53;;;2.50;;
77984;SDS011;67177;47.240;-1.546;2023-06-22T09:42:11;5.73;;;2.53;;
77984;SDS011;67177;47.240;-1.546;2023-06-22T09:44:38;5.57;;;2.50;;
77984;SDS011;67177;47.240;-1.546;2023-06-22T09:47:04;5.07;;;2.47;;
77984;SDS011;67177;47.240;-1.546;2023-06-22T09:49:30;5.30;;;2.30;;
77984;SDS011;67177;47.240;-1.546;2023-06-22T09:51:56;4.70;;;2.10;;
77984;SDS011;67177;47.240;-1.546;2023-06-22T09:54:21;5.33;;;2.20;;
77984;SDS011;67177;47.240;-1.546;2023-06-22T09:56:47;6.72;;;2.20;;
77984;SDS011;67177;47.240;-1.546;2023-06-22T09:59:13;5.80;;;2.30;;
77984;SDS011;67177;47.240;-1.546;2023-06-22T10:01:39;4.85;;;2.13;;
77984;SDS011;67177;47.240;-1.546;2023-06-22T10:04:05;5.40;;;2.30;;
77984;SDS011;67177;47.240;-1.546;2023-06-22T10:06:30;5.15;;;2.40;;
77984;SDS011;67177;47.240;-1.546;2023-06-22T10:08:56;4.87;;;2.07;;
77984;SDS011;67177;47.240;-1.546;2023-06-22T10:11:22;4.50;;;1.90;;
77984;SDS011;67177;47.240;-1.546;2023-06-22T10:13:54;4.38;;;1.98;;
77984;SDS011;67177;47.240;-1.546;2023-06-22T10:16:19;5.00;;;2.00;;
77984;SDS011;67177;47.240;-1.546;2023-06-22T10:18:45;5.00;;;2.28;;
77984;SDS011;67177;47.240;-1.546;2023-06-22T10:21:11;4.83;;;2.20;;
77984;SDS011;67177;47.240;-1.546;2023-06-22T10:23:36;5.03;;;2.13;;
77984;SDS011;67177;47.240;-1.546;2023-06-22T10:26:02;6.13;;;2.07;;
77984;SDS011;67177;47.240;-1.546;2023-06-22T10:28:28;5.00;;;2.10;;
77984;SDS011;67177;47.240;-1.546;2023-06-22T10:30:53;5.63;;;2.10;;
77984;SDS011;67177;47.240;-1.546;2023-06-22T10:33:19;5.00;;;2.40;;
77984;SDS011;67177;47.240;-1.546;2023-06-22T10:35:45;4.90;;;2.05;;
77984;SDS011;67177;47.240;-1.546;2023-06-22T10:38:11;4.43;;;1.90;;
77984;SDS011;67177;47.240;-1.546;2023-06-22T10:40:36;5.22;;;2.25;;
77984;SDS011;67177;47.240;-1.546;2023-06-22T10:43:04;5.30;;;2.30;;
77984;SDS011;67177;47.240;-1.546;2023-06-22T10:45:30;4.80;;;2.10;;
77984;SDS011;67177;47.240;-1.546;2023-06-22T10:47:55;4.47;;;2.00;;
77984;SDS011;67177;47.240;-1.546;2023-06-22T10:50:21;4.55;;;2.10;;
77984;SDS011;67177;47.240;-1.546;2023-06-22T10:52:49;4.70;;;2.08;;
77984;SDS011;67177;47.240;-1.546;2023-06-22T10:55:14;5.20;;;2.40;;
77984;SDS011;67177;47.240;-1.546;2023-06-22T10:57:40;4.50;;;2.00;;
77984;SDS011;67177;47.240;-1.546;2023-06-22T11:00:09;4.45;;;1.98;;
77984;SDS011;67177;47.240;-1.546;2023-06-22T11:02:36;4.88;;;1.92;;
77984;SDS011;67177;47.240;-1.546;2023-06-22T11:05:02;5.07;;;1.80;;
77984;SDS011;67177;47.240;-1.546;2023-06-22T11:07:28;4.72;;;1.90;;
77984;SDS011;67177;47.240;-1.546;2023-06-22T11:09:54;4.78;;;2.00;;
77984;SDS011;67177;47.240;-1.546;2023-06-22T11:12:20;4.30;;;1.67;;
77984;SDS011;67177;47.240;-1.546;2023-06-22T11:14:46;5.20;;;2.00;;
77984;SDS011;67177;47.240;-1.546;2023-06-22T11:17:12;4.68;;;1.80;;
77984;SDS011;67177;47.240;-1.546;2023-06-22T11:19:37;4.87;;;2.30;;
77984;SDS011;67177;47.240;-1.546;2023-06-22T11:22:03;4.95;;;1.83;;
77984;SDS011;67177;47.240;-1.546;2023-06-22T11:24:29;5.03;;;2.20;;
77984;SDS011;67177;47.240;-1.546;2023-06-22T11:26:54;4.70;;;2.13;;
77984;SDS011;67177;47.240;-1.546;2023-06-22T11:29:20;4.55;;;1.90;;
77984;SDS011;67177;47.240;-1.546;2023-06-22T11:31:46;4.47;;;1.85;;
77984;SDS011;67177;47.240;-1.546;2023-06-22T11:34:11;4.87;;;2.10;;
77984;SDS011;67177;47.240;-1.546;2023-06-22T11:36:37;5.63;;;2.15;;
77984;SDS011;67177;47.240;-1.546;2023-06-22T11:39:03;5.13;;;1.97;;
77984;SDS011;67177;47.240;-1.546;2023-06-22T11:41:28;4.68;;;1.88;;
77984;SDS011;67177;47.240;-1.546;2023-06-22T11:43:54;4.40;;;1.80;;
77984;SDS011;67177;47.240;-1.546;2023-06-22T11:46:20;4.55;;;1.70;;
77984;SDS011;67177;47.240;-1.546;2023-06-22T11:48:45;4.17;;;1.80;;
77984;SDS011;67177;47.240;-1.546;2023-06-22T11:51:11;4.78;;;1.60;;
77984;SDS011;67177;47.240;-1.546;2023-06-22T11:53:37;4.50;;;1.80;;
77984;SDS011;67177;47.240;-1.546;2023-06-22T11:56:02;5.13;;;2.08;;
77984;SDS011;67177;47.240;-1.546;2023-06-22T11:58:28;4.57;;;1.87;;
77984;SDS011;67177;47.240;-1.546;2023-06-22T12:00:54;4.67;;;2.10;;
77984;SDS011;67177;47.240;-1.546;2023-06-22T12:03:20;4.60;;;2.00;;
77984;SDS011;67177;47.240;-1.546;2023-06-22T12:05:49;4.57;;;1.85;;
77984;SDS011;67177;47.240;-1.546;2023-06-22T12:08:17;4.53;;;2.05;;
77984;SDS011;67177;47.240;-1.546;2023-06-22T12:10:42;4.80;;;1.80;;
77984;SDS011;67177;47.240;-1.546;2023-06-22T12:13:08;4.18;;;1.77;;
77984;SDS011;67177;47.240;-1.546;2023-06-22T12:15:34;4.33;;;1.80;;
77984;SDS011;67177;47.240;-1.546;2023-06-22T12:18:00;3.95;;;1.70;;
77984;SDS011;67177;47.240;-1.546;2023-06-22T12:20:26;4.20;;;1.90;;
77984;SDS011;67177;47.240;-1.546;2023-06-22T12:22:52;4.63;;;1.90;;
77984;SDS011;67177;47.240;-1.546;2023-06-22T12:25:19;4.22;;;1.70;;
77984;SDS011;67177;47.240;-1.546;2023-06-22T12:27:44;6.97;;;2.03;;
77984;SDS011;67177;47.240;-1.546;2023-06-22T12:30:10;4.70;;;1.95;;
77984;SDS011;67177;47.240;-1.546;2023-06-22T12:32:36;4.57;;;2.03;;
77984;SDS011;67177;47.240;-1.546;2023-06-22T12:35:01;4.73;;;1.80;;
77984;SDS011;67177;47.240;-1.546;2023-06-22T12:37:27;5.18;;;2.17;;
77984;SDS011;67177;47.240;-1.546;2023-06-22T12:39:54;4.80;;;2.10;;
77984;SDS011;67177;47.240;-1.546;2023-06-22T12:42:20;5.07;;;2.00;;
77984;SDS011;67177;47.240;-1.546;2023-06-22T12:44:46;4.30;;;1.80;;
77984;SDS011;67177;47.240;-1.546;2023-06-22T12:47:11;6.05;;;2.17;;
77984;SDS011;67177;47.240;-1.546;2023-06-22T12:49:38;4.33;;;1.80;;
77984;SDS011;67177;47.240;-1.546;2023-06-22T12:52:08;4.90;;;2.15;;
77984;SDS011;67177;47.240;-1.546;2023-06-22T12:54:35;4.55;;;2.17;;
77984;SDS011;67177;47.240;-1.546;2023-06-22T12:57:01;4.73;;;2.10;;
77984;SDS011;67177;47.240;-1.546;2023-06-22T12:59:27;4.30;;;1.92;;
77984;SDS011;67177;47.240;-1.546;2023-06-22T13:01:52;4.40;;;2.00;;
77984;SDS011;67177;47.240;-1.546;2023-06-22T13:04:18;5.22;;;2.00;;
77984;SDS011;67177;47.240;-1.546;2023-06-22T13:06:44;4.40;;;1.93;;
77984;SDS011;67177;47.240;-1.546;2023-06-22T13:09:13;4.30;;;1.90;;
77984;SDS011;67177;47.240;-1.546;2023-06-22T13:11:39;4.50;;;1.98;;
77984;SDS011;67177;47.240;-1.546;2023-06-22T13:14:05;4.37;;;1.77;;
77984;SDS011;67177;47.240;-1.546;2023-06-22T13:16:30;4.35;;;1.80;;
77984;SDS011;67177;47.240;-1.546;2023-06-22T13:18:56;4.80;;;1.80;;
77984;SDS011;67177;47.240;-1.546;2023-06-22T13:21:22;4.68;;;1.90;;
77984;SDS011;67177;47.240;-1.546;2023-06-22T13:23:47;4.60;;;1.90;;
77984;SDS011;67177;47.240;-1.546;2023-06-22T13:26:13;4.63;;;1.98;;
77984;SDS011;67177;47.240;-1.546;2023-06-22T13:28:39;4.30;;;1.90;;
77984;SDS011;67177;47.240;-1.546;2023-06-22T13:31:04;4.33;;;1.87;;
77984;SDS011;67177;47.240;-1.546;2023-06-22T13:33:30;5.03;;;2.00;;
77984;SDS011;67177;47.240;-1.546;2023-06-22T13:35:56;4.88;;;1.90;;
77984;SDS011;67177;47.240;-1.546;2023-06-22T13:38:21;5.37;;;2.07;;
77984;SDS011;67177;47.240;-1.546;2023-06-22T13:40:47;4.80;;;2.10;;
77984;SDS011;67177;47.240;-1.546;2023-06-22T13:43:14;4.30;;;1.70;;
77984;SDS011;67177;47.240;-1.546;2023-06-22T13:45:40;6.10;;;2.00;;
77984;SDS011;67177;47.240;-1.546;2023-06-22T13:48:06;4.50;;;1.90;;
77984;SDS011;67177;47.240;-1.546;2023-06-22T13:50:32;4.63;;;1.70;;
77984;SDS011;67177;47.240;-1.546;2023-06-22T13:52:58;4.93;;;2.22;;
77984;SDS011;67177;47.240;-1.546;2023-06-22T13:55:30;4.13;;;1.77;;
77984;SDS011;67177;47.240;-1.546;2023-06-22T13:58:02;4.90;;;2.10;;
77984;SDS011;67177;47.240;-1.546;2023-06-22T14:00:27;4.43;;;1.80;;
77984;SDS011;67177;47.240;-1.546;2023-06-22T14:02:53;4.10;;;1.70;;
77984;SDS011;67177;47.240;-1.546;2023-06-22T14:05:19;4.50;;;1.60;;
77984;SDS011;67177;47.240;-1.546;2023-06-22T14:07:45;4.00;;;1.50;;
77984;SDS011;67177;47.240;-1.546;2023-06-22T14:10:11;5.03;;;2.03;;
77984;SDS011;67177;47.240;-1.546;2023-06-22T14:12:36;4.10;;;1.77;;
77984;SDS011;67177;47.240;-1.546;2023-06-22T14:15:02;4.30;;;1.90;;
77984;SDS011;67177;47.240;-1.546;2023-06-22T14:17:28;4.97;;;1.90;;
77984;SDS011;67177;47.240;-1.546;2023-06-22T14:19:54;4.37;;;1.63;;
77984;SDS011;67177;47.240;-1.546;2023-06-22T14:22:21;4.13;;;1.50;;
77984;SDS011;67177;47.240;-1.546;2023-06-22T14:24:47;4.10;;;1.60;;
77984;SDS011;67177;47.240;-1.546;2023-06-22T14:27:13;4.25;;;1.40;;
77984;SDS011;67177;47.240;-1.546;2023-06-22T14:29:39;4.07;;;1.60;;
77984;SDS011;67177;47.240;-1.546;2023-06-22T14:32:04;3.53;;;1.27;;
77984;SDS011;67177;47.240;-1.546;2023-06-22T14:34:31;3.90;;;1.30;;
77984;SDS011;67177;47.240;-1.546;2023-06-22T14:36:57;3.78;;;1.52;;
77984;SDS011;67177;47.240;-1.546;2023-06-22T14:39:23;4.50;;;1.73;;
77984;SDS011;67177;47.240;-1.546;2023-06-22T14:41:49;4.67;;;1.70;;